Time;durP1;ratioP1;P1;durP2;ratioP2;P2;SDS_P1;SDS_P2;PMS_P1;PMS_P2;Temp;Humidity;BMP_temperature;BMP_pressure;BME280_temperature;BME280_humidity;BME280_pressure;Samples;Min_cycle;Max_cycle;Signal;HPM_P1;HPM_P2
2022/08/26 03:52:15;;;;;;;23.53;22.03;;;19.10;99.90;;;;;;5184903;23;20586;-74
2022/08/26 03:54:42;;;;;;;23.17;21.77;;;19.00;99.90;;;;;;4971592;28;20941;-74
2022/08/26 03:57:08;;;;;;;22.97;21.63;;;19.00;99.90;;;;;;4971538;28;21007;-75
2022/08/26 03:59:35;;;;;;;22.00;20.60;;;19.00;99.90;;;;;;4971159;28;20897;-74
2022/08/26 04:02:02;;;;;;;22.53;21.23;;;18.90;99.90;;;;;;4971369;28;20455;-75
2022/08/26 04:04:28;;;;;;;22.87;21.23;;;18.90;99.90;;;;;;4971359;28;20459;-74
2022/08/26 04:06:57;;;;;;;22.87;21.47;;;18.90;99.90;;;;;;4971793;28;20451;-75
2022/08/26 04:09:26;;;;;;;23.87;22.27;;;18.80;99.90;;;;;;4971595;28;20510;-75
2022/08/26 04:11:53;;;;;;;23.20;21.70;;;18.80;99.90;;;;;;4971769;28;20448;-76
2022/08/26 04:14:23;;;;;;;23.30;21.80;;;18.80;99.90;;;;;;4971516;28;20493;-74
2022/08/26 04:16:51;;;;;;;25.00;23.37;;;18.80;99.90;;;;;;4971446;28;20499;-75
2022/08/26 04:19:19;;;;;;;24.80;23.27;;;18.80;99.90;;;;;;4971174;28;20443;-75
2022/08/26 04:21:47;;;;;;;24.33;22.77;;;18.90;99.90;;;;;;4970942;28;20459;-75
2022/08/26 04:24:16;;;;;;;23.60;22.20;;;18.80;99.90;;;;;;4971367;28;20451;-75
2022/08/26 04:26:44;;;;;;;23.03;21.73;;;18.80;99.90;;;;;;4971526;28;20957;-74
2022/08/26 04:29:14;;;;;;;24.00;22.40;;;18.80;99.90;;;;;;4971482;28;20455;-75
2022/08/26 04:31:41;;;;;;;22.00;20.60;;;18.80;99.90;;;;;;4971532;28;20447;-74
2022/08/26 04:34:08;;;;;;;24.53;22.70;;;18.80;99.90;;;;;;4971460;28;20462;-75
2022/08/26 04:36:35;;;;;;;23.77;22.47;;;18.70;99.90;;;;;;4971134;28;20491;-75
2022/08/26 04:39:04;;;;;;;22.60;21.20;;;18.70;99.90;;;;;;4971502;28;20546;-75
2022/08/26 04:41:31;;;;;;;24.23;22.77;;;18.70;99.90;;;;;;4973912;28;20549;-74
2022/08/26 04:44:00;;;;;;;25.20;23.67;;;18.70;99.90;;;;;;4973747;28;20475;-74
2022/08/26 04:46:28;;;;;;;22.33;20.83;;;18.80;99.90;;;;;;4971262;28;20452;-74
2022/08/26 04:48:54;;;;;;;22.97;21.57;;;18.70;99.90;;;;;;4971352;28;20452;-73
2022/08/26 04:51:26;;;;;;;23.03;21.40;;;18.70;99.90;;;;;;4970645;28;20490;-75
2022/08/26 04:53:53;;;;;;;23.80;22.17;;;18.70;99.90;;;;;;4971175;28;20456;-75
2022/08/26 04:56:20;;;;;;;23.03;21.53;;;18.70;99.90;;;;;;4970636;28;20491;-74
2022/08/26 04:58:48;;;;;;;24.67;23.17;;;18.70;99.90;;;;;;4970572;28;20455;-74
2022/08/26 05:01:17;;;;;;;24.40;22.27;;;18.70;99.90;;;;;;4970786;28;20463;-74
2022/08/26 05:03:44;;;;;;;24.03;22.47;;;18.80;99.90;;;;;;4970854;28;20459;-76
2022/08/26 05:06:11;;;;;;;22.10;20.17;;;18.80;99.90;;;;;;4972932;28;20447;-75
2022/08/26 05:08:37;;;;;;;24.10;22.20;;;18.80;99.90;;;;;;4974854;28;20455;-74
2022/08/26 05:11:06;;;;;;;24.03;22.47;;;18.90;99.90;;;;;;4974772;28;20452;-76
2022/08/26 05:13:34;;;;;;;24.10;22.60;;;18.90;99.90;;;;;;4974758;28;21004;-75
2022/08/26 05:16:03;;;;;;;25.73;23.50;;;19.00;99.90;;;;;;4974462;28;20589;-76
2022/08/26 05:18:31;;;;;;;23.93;22.27;;;19.10;99.90;;;;;;4974299;28;20754;-77
2022/08/26 05:20:58;;;;;;;22.90;21.60;;;19.20;99.90;;;;;;4974653;28;20576;-73
2022/08/26 05:23:25;;;;;;;22.50;21.20;;;19.20;99.90;;;;;;4974783;28;20872;-74
2022/08/26 05:25:54;;;;;;;20.23;18.83;;;19.40;99.90;;;;;;4974623;28;20447;-75
2022/08/26 05:28:21;;;;;;;23.07;21.17;;;19.50;99.90;;;;;;4974685;28;20502;-76
2022/08/26 05:30:48;;;;;;;23.17;21.27;;;19.70;99.90;;;;;;4974451;28;20502;-75
2022/08/26 05:33:16;;;;;;;22.67;21.27;;;19.70;99.90;;;;;;4974711;28;20452;-76
2022/08/26 05:35:44;;;;;;;23.37;21.10;;;20.00;99.90;;;;;;4974659;28;20448;-76
2022/08/26 05:38:14;;;;;;;21.53;19.80;;;20.30;99.90;;;;;;4974700;28;20818;-77
2022/08/26 05:40:45;;;;;;;24.50;23.00;;;20.40;99.90;;;;;;4974524;28;20460;-76
2022/08/26 05:43:13;;;;;;;21.87;20.37;;;20.40;99.90;;;;;;4974267;28;20933;-75
2022/08/26 05:45:41;;;;;;;21.67;20.07;;;20.30;99.90;;;;;;4974055;28;20468;-75
2022/08/26 05:48:08;;;;;;;24.90;22.70;;;20.20;99.90;;;;;;4974066;28;20458;-75
2022/08/26 05:50:40;;;;;;;21.63;20.23;;;20.20;99.90;;;;;;4973457;28;20495;-78
2022/08/26 05:53:09;;;;;;;21.37;20.00;;;20.10;99.90;;;;;;4974053;28;20459;-76
2022/08/26 05:55:42;;;;;;;22.83;21.07;;;20.10;99.90;;;;;;4973780;28;20452;-76
2022/08/26 05:58:09;;;;;;;23.47;21.80;;;20.10;99.90;;;;;;4973808;28;20779;-76
2022/08/26 06:00:36;;;;;;;24.87;22.87;;;20.20;99.90;;;;;;4973738;28;20459;-76
2022/08/26 06:03:02;;;;;;;23.90;22.10;;;20.30;99.90;;;;;;4973626;28;20656;-79
2022/08/26 06:05:29;;;;;;;23.17;21.57;;;20.50;99.90;;;;;;4973730;28;20451;-77
2022/08/26 06:08:12;;;;;;;23.13;21.40;;;20.60;99.90;;;;;;4974177;28;20447;-77
2022/08/26 06:10:45;;;;;;;21.57;20.10;;;20.90;99.90;;;;;;4974423;28;20550;-76
2022/08/26 06:13:11;;;;;;;20.77;19.47;;;21.40;99.90;;;;;;4974170;28;20460;-77
2022/08/26 06:15:41;;;;;;;20.37;19.27;;;21.60;99.90;;;;;;4973641;28;20451;-78
2022/08/26 06:18:08;;;;;;;20.27;19.10;;;21.70;99.90;;;;;;4973638;28;20495;-79
2022/08/26 06:20:36;;;;;;;20.20;18.67;;;21.60;99.90;;;;;;4973277;28;20921;-78
2022/08/26 06:25:49;;;;;;;19.73;18.53;;;21.40;99.90;;;;;;4973496;28;20434;-78
2022/08/26 06:28:16;;;;;;;20.30;19.10;;;21.30;99.90;;;;;;4973392;28;20459;-77
2022/08/26 06:30:43;;;;;;;18.73;17.73;;;21.10;99.90;;;;;;4973346;28;20562;-78
2022/08/26 06:33:09;;;;;;;19.40;18.00;;;21.20;99.90;;;;;;4973272;28;20459;-79
2022/08/26 06:35:38;;;;;;;18.93;17.83;;;21.30;99.90;;;;;;4973071;28;20455;-77
2022/08/26 06:38:05;;;;;;;18.00;16.77;;;21.40;99.90;;;;;;4972633;28;20514;-78
2022/08/26 06:40:32;;;;;;;19.80;18.70;;;21.70;99.90;;;;;;4972864;28;20454;-77
2022/08/26 06:43:00;;;;;;;21.90;20.00;;;21.80;99.90;;;;;;4973162;28;20873;-78
2022/08/26 06:45:27;;;;;;;20.10;18.77;;;21.90;99.90;;;;;;4973372;28;20562;-78
2022/08/26 06:47:54;;;;;;;19.53;18.33;;;21.90;99.90;;;;;;4973201;28;20539;-79
2022/08/26 06:50:20;;;;;;;20.37;19.10;;;22.00;99.90;;;;;;4972833;28;20513;-79
2022/08/26 06:52:47;;;;;;;21.03;19.73;;;22.10;99.90;;;;;;4973056;28;21130;-78
2022/08/26 06:55:14;;;;;;;18.90;17.57;;;22.50;99.90;;;;;;4973242;28;20858;-78
2022/08/26 06:57:40;;;;;;;19.60;18.60;;;22.70;99.90;;;;;;4973404;28;21024;-78
2022/08/26 07:00:10;;;;;;;19.60;18.40;;;22.70;99.90;;;;;;4972997;28;21012;-76
2022/08/26 07:02:37;;;;;;;19.20;18.20;;;22.90;99.90;;;;;;4972972;28;20466;-76
2022/08/26 07:05:05;;;;;;;19.30;18.10;;;22.90;99.90;;;;;;4972689;28;20962;-76
2022/08/26 07:07:32;;;;;;;19.43;18.13;;;23.00;99.90;;;;;;4972801;28;20443;-78
2022/08/26 07:09:58;;;;;;;19.63;18.27;;;23.10;99.90;;;;;;4972811;28;20822;-76
2022/08/26 07:12:25;;;;;;;19.10;17.90;;;23.20;99.90;;;;;;4972763;28;20510;-77
2022/08/26 07:14:52;;;;;;;20.33;19.17;;;23.30;99.90;;;;;;4972643;28;20997;-77
2022/08/26 07:17:20;;;;;;;19.17;18.03;;;23.50;99.90;;;;;;4972816;28;20579;-78
2022/08/26 07:19:47;;;;;;;19.00;17.87;;;23.60;99.90;;;;;;4972626;28;20713;-64
2022/08/26 07:22:14;;;;;;;18.60;17.20;;;23.90;99.90;;;;;;4972587;28;20479;-66
2022/08/26 07:24:41;;;;;;;19.07;17.97;;;24.60;99.90;;;;;;4972730;28;21025;-62
2022/08/26 07:27:11;;;;;;;20.07;17.90;;;24.80;99.90;;;;;;4972612;28;20908;-62
2022/08/26 07:29:39;;;;;;;19.93;18.73;;;24.90;99.90;;;;;;4972042;28;20510;-63
2022/08/26 07:32:07;;;;;;;19.97;18.77;;;25.10;99.90;;;;;;4972166;28;20478;-72
2022/08/26 07:34:36;;;;;;;19.53;18.50;;;25.20;99.90;;;;;;4972051;28;20567;-72
2022/08/26 07:37:03;;;;;;;21.33;19.60;;;25.00;99.90;;;;;;4971798;28;20761;-73
2022/08/26 07:39:31;;;;;;;20.67;19.43;;;25.20;99.90;;;;;;4971994;28;20447;-71
2022/08/26 07:41:58;;;;;;;19.53;18.40;;;25.20;99.90;;;;;;4971999;28;20455;-72
2022/08/26 07:44:26;;;;;;;19.60;18.37;;;25.30;99.90;;;;;;4971704;28;20774;-73
2022/08/26 07:46:53;;;;;;;20.10;18.90;;;25.30;99.90;;;;;;4971610;28;20456;-72
2022/08/26 07:49:20;;;;;;;20.57;19.17;;;25.40;99.90;;;;;;4971357;28;20559;-73
2022/08/26 07:51:49;;;;;;;19.97;18.80;;;25.40;99.90;;;;;;4971373;28;20480;-72
2022/08/26 07:54:16;;;;;;;20.57;19.20;;;25.30;99.90;;;;;;4971588;28;20519;-74
2022/08/26 07:56:43;;;;;;;20.37;18.80;;;25.40;99.90;;;;;;4971449;28;20578;-72
2022/08/26 07:59:10;;;;;;;20.73;19.33;;;25.60;99.90;;;;;;4971687;28;20452;-73
2022/08/26 08:01:37;;;;;;;20.80;19.63;;;26.00;99.90;;;;;;4971444;28;20467;-72
2022/08/26 08:04:04;;;;;;;19.33;17.80;;;26.30;99.90;;;;;;4971321;28;20460;-72
2022/08/26 08:06:32;;;;;;;18.87;17.67;;;26.30;99.90;;;;;;4971106;28;20486;-73
2022/08/26 08:09:00;;;;;;;19.03;17.93;;;26.50;99.90;;;;;;4971199;28;20456;-73
2022/08/26 08:11:29;;;;;;;20.97;19.37;;;26.60;99.90;;;;;;4971040;28;20459;-72
2022/08/26 08:13:59;;;;;;;19.47;18.37;;;26.70;99.90;;;;;;4971351;28;20831;-73
2022/08/26 08:16:27;;;;;;;19.80;18.70;;;26.80;99.90;;;;;;4971167;28;20536;-73
2022/08/26 08:18:55;;;;;;;18.97;17.87;;;26.80;99.90;;;;;;4971015;28;20470;-72
2022/08/26 08:21:22;;;;;;;19.67;18.50;;;26.70;99.90;;;;;;4970978;28;20448;-73
2022/08/26 08:23:49;;;;;;;19.13;18.00;;;26.70;99.90;;;;;;4971156;28;20518;-72
2022/08/26 08:26:17;;;;;;;21.33;19.63;;;26.30;99.90;;;;;;4971038;28;20510;-73
2022/08/26 08:28:45;;;;;;;19.53;18.53;;;26.20;99.90;;;;;;4971135;28;20448;-73
2022/08/26 08:31:18;;;;;;;20.07;18.67;;;26.10;99.90;;;;;;4971184;28;20462;-73
2022/08/26 08:33:45;;;;;;;18.50;17.40;;;25.90;99.90;;;;;;4970648;28;20953;-72
2022/08/26 08:36:13;;;;;;;17.47;16.47;;;25.70;99.90;;;;;;4970834;28;20817;-72
2022/08/26 08:38:40;;;;;;;17.70;16.63;;;25.70;99.90;;;;;;4970784;28;20901;-72
2022/08/26 08:41:19;;;;;;;18.73;17.63;;;25.60;99.90;;;;;;4969687;28;20455;-73
2022/08/26 08:43:47;;;;;;;18.50;17.00;;;25.70;99.90;;;;;;4970084;28;20486;-73
2022/08/26 08:46:18;;;;;;;20.17;18.93;;;25.80;99.90;;;;;;4969973;28;20456;-73
2022/08/26 08:48:48;;;;;;;19.77;18.53;;;26.00;99.90;;;;;;4970043;28;20562;-73
2022/08/26 08:51:21;;;;;;;19.20;18.20;;;26.50;99.90;;;;;;4969855;28;20558;-73
2022/08/26 08:53:52;;;;;;;19.00;18.00;;;26.90;99.90;;;;;;4970025;28;20546;-73
2022/08/26 08:56:26;;;;;;;18.10;17.30;;;27.20;98.80;;;;;;4970206;28;20455;-72
2022/08/26 08:59:00;;;;;;;18.77;17.70;;;27.60;98.60;;;;;;4970018;28;20494;-73
2022/08/26 09:01:54;;;;;;;19.27;18.27;;;27.90;97.80;;;;;;4970018;28;20538;-71
2022/08/26 09:04:51;;;;;;;17.33;16.43;;;28.40;96.50;;;;;;4969761;28;20459;-72
2022/08/26 09:07:21;;;;;;;17.77;16.77;;;29.20;94.80;;;;;;4969650;28;20538;-72
2022/08/26 09:09:54;;;;;;;18.67;17.53;;;29.70;93.40;;;;;;4969934;28;20962;-72
2022/08/26 09:12:24;;;;;;;18.87;17.70;;;30.00;92.60;;;;;;4970259;28;20456;-73
2022/08/26 09:14:53;;;;;;;20.47;18.97;;;30.40;91.70;;;;;;4970185;28;20459;-73
2022/08/26 09:17:32;;;;;;;19.77;18.43;;;30.80;90.70;;;;;;4969894;28;20491;-73
2022/08/26 09:20:10;;;;;;;19.70;18.60;;;31.10;90.50;;;;;;4969826;28;20460;-73
2022/08/26 09:22:38;;;;;;;19.23;17.70;;;31.50;88.60;;;;;;4969913;28;20594;-72
2022/08/26 09:25:10;;;;;;;18.03;16.93;;;32.30;86.60;;;;;;4969765;28;20467;-72
2022/08/26 09:27:42;;;;;;;18.47;17.57;;;32.50;82.80;;;;;;4969967;28;20451;-73
2022/08/26 09:30:11;;;;;;;18.13;17.30;;;32.50;82.50;;;;;;4970151;28;20452;-73
2022/08/26 09:32:38;;;;;;;19.83;18.90;;;32.90;80.80;;;;;;4970008;28;20456;-73
2022/08/26 09:35:08;;;;;;;18.47;17.67;;;33.50;77.60;;;;;;4969979;28;20459;-72
2022/08/26 09:37:41;;;;;;;19.10;18.20;;;34.00;74.80;;;;;;4969816;28;20601;-73
2022/08/26 09:40:16;;;;;;;18.23;17.13;;;34.60;71.90;;;;;;4969862;28;20490;-72
2022/08/26 09:42:44;;;;;;;18.73;17.93;;;35.40;70.60;;;;;;4970005;28;20459;-73
2022/08/26 09:45:11;;;;;;;18.77;17.77;;;36.70;66.70;;;;;;4970219;28;20451;-72
2022/08/26 09:47:41;;;;;;;19.73;18.93;;;37.60;62.80;;;;;;4969995;28;20455;-72
2022/08/26 09:50:18;;;;;;;19.50;18.70;;;38.10;60.60;;;;;;4969819;28;20471;-72
2022/08/26 09:52:45;;;;;;;20.27;19.40;;;38.90;58.30;;;;;;4972458;28;20545;-72
2022/08/26 09:55:14;;;;;;;19.87;18.87;;;39.30;55.20;;;;;;4973346;28;20455;-72
2022/08/26 09:57:48;;;;;;;18.67;17.97;;;39.30;54.30;;;;;;4973834;28;20502;-73
2022/08/26 10:00:33;;;;;;;20.30;19.50;;;39.20;54.30;;;;;;4973759;28;20462;-73
2022/08/26 10:03:02;;;;;;;19.37;18.53;;;39.80;53.20;;;;;;4973523;28;20868;-73
2022/08/26 10:05:34;;;;;;;19.50;18.60;;;40.20;52.00;;;;;;4973358;28;20466;-73
2022/08/26 10:08:17;;;;;;;20.10;19.10;;;40.60;50.90;;;;;;4973371;28;20972;-73
2022/08/26 10:10:45;;;;;;;21.43;20.23;;;41.60;49.50;;;;;;4973329;28;20505;-73
2022/08/26 10:13:17;;;;;;;21.87;20.67;;;41.80;48.20;;;;;;4973513;28;20455;-74
2022/08/26 10:15:50;;;;;;;21.53;20.50;;;41.70;47.70;;;;;;4973348;28;20454;-74
2022/08/26 10:18:21;;;;;;;22.03;20.83;;;41.30;48.30;;;;;;4973196;28;20851;-74
2022/08/26 10:20:55;;;;;;;21.80;20.57;;;41.00;47.90;;;;;;4973075;28;20447;-74
2022/08/26 10:23:25;;;;;;;20.80;19.60;;;41.40;47.00;;;;;;4973387;28;20458;-74
2022/08/26 10:25:57;;;;;;;21.90;20.90;;;41.60;46.80;;;;;;4973290;28;20956;-73
2022/08/26 10:28:32;;;;;;;22.90;21.60;;;41.70;46.20;;;;;;4972972;28;20818;-73
2022/08/26 10:31:04;;;;;;;22.80;21.57;;;42.40;44.70;;;;;;4973031;28;20831;-73
2022/08/26 10:33:31;;;;;;;21.40;20.23;;;42.90;43.30;;;;;;4972907;28;20482;-72
2022/08/26 10:36:03;;;;;;;24.30;22.60;;;42.80;43.10;;;;;;4972791;28;20459;-74
2022/08/26 10:38:34;;;;;;;22.30;20.70;;;43.80;41.80;;;;;;4972483;28;21142;-73
2022/08/26 10:41:05;;;;;;;22.40;21.30;;;42.60;42.60;;;;;;4972575;28;20858;-74
2022/08/26 10:43:39;;;;;;;23.77;22.13;;;42.70;42.40;;;;;;4972587;28;20455;-74
2022/08/26 10:46:15;;;;;;;23.20;21.90;;;43.00;41.30;;;;;;4972485;28;20467;-74
2022/08/26 10:48:47;;;;;;;23.83;22.53;;;43.50;40.70;;;;;;4972566;28;20486;-74
2022/08/26 10:51:17;;;;;;;22.00;21.10;;;43.70;40.30;;;;;;4971968;28;20937;-75
2022/08/26 10:53:51;;;;;;;23.63;22.20;;;44.90;38.30;;;;;;4972337;28;20227;-74
2022/08/26 10:56:29;;;;;;;22.60;21.40;;;44.20;38.30;;;;;;4972310;28;20315;-74
2022/08/26 10:59:06;;;;;;;21.60;20.50;;;44.10;37.70;;;;;;4972252;28;20223;-73
2022/08/26 11:01:42;;;;;;;20.70;19.70;;;43.80;38.00;;;;;;4971888;28;20203;-74
2022/08/26 11:04:36;;;;;;;23.43;22.43;;;44.50;37.10;;;;;;4971566;28;20225;-75
2022/08/26 11:07:36;;;;;;;21.70;20.80;;;44.60;36.30;;;;;;4964817;28;20200;-74
2022/08/26 11:10:06;;;;;;;22.57;21.50;;;44.60;36.80;;;;;;4972170;28;20367;-75
2022/08/26 11:13:03;;;;;;;22.03;20.73;;;44.50;36.90;;;;;;4972271;28;20208;-74
2022/08/26 11:16:09;;;;;;;21.20;20.10;;;44.10;36.50;;;;;;4972061;28;20246;-74
2022/08/26 11:18:44;;;;;;;22.20;20.93;;;42.40;38.00;;;;;;4971975;28;20223;-75
2022/08/26 11:21:47;;;;;;;22.73;21.20;;;40.30;41.60;;;;;;4972696;28;20815;-75
2022/08/26 11:24:42;;;;;;;24.73;23.30;;;39.80;42.30;;;;;;4972009;28;20443;-75
2022/08/26 11:27:25;;;;;;;23.20;21.90;;;38.60;44.50;;;;;;4972203;28;21262;-74
2022/08/26 11:29:58;;;;;;;23.80;22.20;;;36.40;47.90;;;;;;4959465;28;20456;-74
2022/08/26 11:32:27;;;;;;;23.20;21.37;;;34.30;51.70;;;;;;4972454;28;20451;-74
2022/08/26 11:34:58;;;;;;;20.20;18.93;;;33.30;54.70;;;;;;4972219;28;20458;-75
2022/08/26 11:37:32;;;;;;;21.83;20.40;;;33.20;55.90;;;;;;4972252;28;20816;-74
2022/08/26 11:40:00;;;;;;;22.43;21.00;;;33.80;55.70;;;;;;4971917;28;20483;-74
2022/08/26 11:42:34;;;;;;;22.83;20.90;;;33.10;57.30;;;;;;4971624;28;20459;-74
2022/08/26 11:45:03;;;;;;;21.57;20.23;;;32.30;59.60;;;;;;4971204;28;20452;-75
2022/08/26 11:47:31;;;;;;;22.50;20.73;;;33.00;59.60;;;;;;4970951;28;20458;-73
2022/08/26 11:50:15;;;;;;;21.00;19.40;;;34.30;56.60;;;;;;4970997;28;20479;-75
2022/08/26 11:52:51;;;;;;;21.07;19.73;;;35.60;53.80;;;;;;4970886;28;20524;-75
2022/08/26 11:55:17;;;;;;;21.10;19.70;;;36.20;52.30;;;;;;4970836;28;20479;-73
2022/08/26 11:57:47;;;;;;;20.47;19.30;;;36.50;51.70;;;;;;4970587;28;20530;-73
2022/08/26 12:00:20;;;;;;;21.20;19.80;;;36.70;51.30;;;;;;4970882;28;20460;-73
2022/08/26 12:02:47;;;;;;;20.57;19.20;;;36.40;50.90;;;;;;4970916;28;20611;-74
2022/08/26 12:05:20;;;;;;;22.20;21.20;;;36.70;51.00;;;;;;4970970;28;20455;-73
2022/08/26 12:07:49;;;;;;;20.83;19.53;;;36.50;50.10;;;;;;4970645;28;20477;-73
2022/08/26 12:10:28;;;;;;;20.60;19.40;;;37.00;50.70;;;;;;4970689;28;20472;-73
2022/08/26 12:12:56;;;;;;;22.20;20.80;;;38.20;48.00;;;;;;4970774;28;20468;-73
2022/08/26 12:15:24;;;;;;;23.23;21.50;;;38.00;47.70;;;;;;4970545;28;20452;-73
2022/08/26 12:17:51;;;;;;;21.70;20.47;;;38.20;47.90;;;;;;4970413;28;20455;-73
2022/08/26 12:20:44;;;;;;;23.70;22.20;;;38.50;47.50;;;;;;4970139;28;20945;-75
2022/08/26 12:23:20;;;;;;;20.83;19.60;;;36.90;49.50;;;;;;4970466;28;20584;-73
2022/08/26 12:25:47;;;;;;;22.13;20.73;;;35.30;53.30;;;;;;4970425;28;20455;-74
2022/08/26 12:28:14;;;;;;;21.70;20.00;;;33.70;55.60;;;;;;4970290;28;20823;-73
2022/08/26 12:30:41;;;;;;;21.13;19.47;;;32.90;58.10;;;;;;4970494;28;20487;-75
2022/08/26 12:33:14;;;;;;;21.40;19.90;;;32.50;59.70;;;;;;4970267;28;20495;-74
2022/08/26 12:35:43;;;;;;;21.40;20.00;;;32.30;60.70;;;;;;4970395;28;20571;-75
2022/08/26 12:38:10;;;;;;;20.70;19.40;;;32.30;60.80;;;;;;4970617;28;20483;-73
2022/08/26 12:40:42;;;;;;;21.07;19.33;;;32.50;59.60;;;;;;4970369;28;20459;-72
2022/08/26 12:43:10;;;;;;;20.77;19.43;;;32.20;59.40;;;;;;4970662;28;20543;-74
2022/08/26 12:45:40;;;;;;;21.77;19.97;;;32.30;59.70;;;;;;4970627;28;20456;-74
2022/08/26 12:48:09;;;;;;;20.97;19.80;;;32.50;59.20;;;;;;4970502;28;20465;-75
2022/08/26 12:50:39;;;;;;;19.53;18.43;;;32.90;58.90;;;;;;4970296;28;20558;-74
2022/08/26 12:53:17;;;;;;;21.43;20.03;;;33.50;58.80;;;;;;4970478;28;20456;-74
2022/08/26 12:55:46;;;;;;;22.10;20.70;;;33.70;58.40;;;;;;4970683;28;20451;-74
2022/08/26 12:58:25;;;;;;;20.03;18.93;;;34.60;56.50;;;;;;4970678;28;20492;-75
2022/08/26 13:00:53;;;;;;;21.37;19.90;;;35.30;52.40;;;;;;4970664;28;20447;-75
2022/08/26 13:03:42;;;;;;;20.83;19.33;;;35.40;52.00;;;;;;4970447;28;20478;-75
2022/08/26 13:06:15;;;;;;;21.10;19.70;;;35.70;52.30;;;;;;4970568;28;20964;-74
2022/08/26 13:08:45;;;;;;;21.73;19.77;;;36.00;52.30;;;;;;4970876;28;20542;-74
2022/08/26 13:11:17;;;;;;;20.77;19.47;;;35.70;52.60;;;;;;4970702;28;20543;-74
2022/08/26 13:13:45;;;;;;;20.87;19.50;;;35.60;52.50;;;;;;4970813;28;20463;-74
2022/08/26 13:16:12;;;;;;;20.20;19.00;;;35.70;52.40;;;;;;4970892;28;20535;-75
2022/08/26 13:18:39;;;;;;;20.37;19.17;;;35.40;50.80;;;;;;4970550;28;20545;-75
2022/08/26 13:21:12;;;;;;;19.03;17.80;;;35.30;50.60;;;;;;4970453;28;20941;-75
2022/08/26 13:23:39;;;;;;;19.20;18.30;;;34.80;50.70;;;;;;4970765;28;21018;-73
2022/08/26 13:26:07;;;;;;;20.63;19.37;;;34.40;50.80;;;;;;4970783;28;20455;-74
2022/08/26 13:28:34;;;;;;;19.27;18.07;;;34.30;50.90;;;;;;4974156;28;20913;-74
2022/08/26 13:31:01;;;;;;;20.40;19.40;;;34.60;50.20;;;;;;4974070;28;20968;-74
2022/08/26 13:33:28;;;;;;;17.43;16.40;;;34.70;50.60;;;;;;4973865;28;20455;-74
2022/08/26 13:35:54;;;;;;;19.13;18.00;;;34.70;51.30;;;;;;4974216;28;20452;-74
2022/08/26 13:38:21;;;;;;;18.73;17.73;;;34.20;51.80;;;;;;4974037;28;20856;-74
2022/08/26 13:40:48;;;;;;;18.67;17.53;;;33.60;52.50;;;;;;4973940;28;20459;-73
2022/08/26 13:43:16;;;;;;;18.43;16.90;;;32.80;55.30;;;;;;4973769;28;20840;-74
2022/08/26 13:45:43;;;;;;;20.27;19.00;;;32.40;56.30;;;;;;4973347;28;20466;-74
2022/08/26 13:48:10;;;;;;;19.10;17.93;;;32.00;57.10;;;;;;4973894;28;20460;-74
2022/08/26 13:50:37;;;;;;;18.30;17.30;;;31.80;57.20;;;;;;4972971;28;20866;-74
2022/08/26 13:53:04;;;;;;;19.37;18.20;;;31.60;57.90;;;;;;4972910;28;20683;-73
2022/08/26 13:55:30;;;;;;;19.63;18.23;;;31.30;57.80;;;;;;4973347;28;20537;-74
2022/08/26 13:57:57;;;;;;;19.27;17.97;;;31.20;57.60;;;;;;4973104;28;20462;-73
2022/08/26 14:00:25;;;;;;;18.00;17.00;;;31.20;57.20;;;;;;4973433;28;21040;-75
2022/08/26 14:02:52;;;;;;;18.30;17.20;;;31.20;57.70;;;;;;4973347;28;20444;-74
2022/08/26 14:05:19;;;;;;;19.13;18.13;;;31.10;58.20;;;;;;4973228;28;20522;-73
2022/08/26 14:07:46;;;;;;;20.50;19.10;;;31.00;58.20;;;;;;4972899;28;20452;-73
2022/08/26 14:10:12;;;;;;;19.60;18.30;;;30.90;58.80;;;;;;4973297;28;20447;-73
2022/08/26 14:12:39;;;;;;;20.83;19.53;;;30.80;59.40;;;;;;4973235;28;20483;-73
2022/08/26 14:15:07;;;;;;;20.27;18.93;;;30.50;61.00;;;;;;4972862;28;20871;-74
2022/08/26 14:17:35;;;;;;;19.23;18.13;;;30.40;60.90;;;;;;4972860;28;20460;-74
2022/08/26 14:20:03;;;;;;;18.13;16.83;;;30.30;59.90;;;;;;4972678;28;20502;-73
2022/08/26 14:22:30;;;;;;;16.70;15.70;;;30.10;59.00;;;;;;4972811;28;20479;-73
2022/08/26 14:24:56;;;;;;;20.40;18.40;;;30.20;59.60;;;;;;4973052;28;20871;-74
2022/08/26 14:27:24;;;;;;;19.43;17.83;;;30.10;61.00;;;;;;4972867;28;20459;-74
2022/08/26 14:29:50;;;;;;;18.37;17.30;;;30.00;63.00;;;;;;4972983;28;20460;-73
2022/08/26 14:32:26;;;;;;;18.47;17.40;;;30.00;64.20;;;;;;4972597;28;20518;-74
2022/08/26 14:34:55;;;;;;;19.00;17.70;;;30.00;63.50;;;;;;4972867;28;20450;-73
2022/08/26 14:37:22;;;;;;;18.57;17.57;;;30.00;63.60;;;;;;4972401;28;20905;-74
2022/08/26 14:39:49;;;;;;;19.80;18.37;;;30.00;64.40;;;;;;4971795;28;20650;-74
2022/08/26 14:42:19;;;;;;;17.97;16.90;;;30.10;64.50;;;;;;4972464;28;20451;-72
2022/08/26 14:44:48;;;;;;;19.83;18.23;;;30.10;64.60;;;;;;4972600;28;20510;-72
2022/08/26 14:47:15;;;;;;;17.97;16.80;;;30.00;65.30;;;;;;4972317;28;20545;-72
2022/08/26 14:49:41;;;;;;;18.93;17.20;;;30.00;65.60;;;;;;4972383;28;20483;-72
2022/08/26 14:52:09;;;;;;;18.90;17.80;;;30.00;65.00;;;;;;4972327;28;20542;-74
2022/08/26 14:54:36;;;;;;;18.47;17.20;;;30.00;65.20;;;;;;4972408;28;20863;-73
2022/08/26 14:57:06;;;;;;;18.30;17.00;;;29.90;65.40;;;;;;4972539;28;20447;-73
2022/08/26 14:59:35;;;;;;;18.53;17.23;;;30.00;65.30;;;;;;4972580;28;20864;-73
2022/08/26 15:02:03;;;;;;;17.30;16.30;;;30.00;65.50;;;;;;4972365;28;20948;-73
2022/08/26 15:04:29;;;;;;;18.90;17.60;;;30.00;65.50;;;;;;4972113;28;20456;-73
2022/08/26 15:06:58;;;;;;;18.63;17.17;;;29.90;65.20;;;;;;4972618;28;20459;-73
2022/08/26 15:09:27;;;;;;;18.30;17.10;;;29.90;65.40;;;;;;4972599;28;20475;-73
2022/08/26 15:11:54;;;;;;;17.30;16.40;;;29.90;65.50;;;;;;4972508;28;20463;-73
2022/08/26 15:14:21;;;;;;;17.83;16.77;;;29.90;65.70;;;;;;4971654;28;20460;-74
2022/08/26 15:16:49;;;;;;;19.00;17.70;;;29.90;66.30;;;;;;4971924;28;20479;-73
2022/08/26 15:19:17;;;;;;;27.23;18.70;;;29.90;67.00;;;;;;4972144;28;20550;-74
2022/08/26 15:21:45;;;;;;;19.10;17.80;;;29.90;67.30;;;;;;4971912;28;20460;-74
2022/08/26 15:24:13;;;;;;;19.07;17.67;;;29.70;67.40;;;;;;4972117;28;20456;-72
2022/08/26 15:26:42;;;;;;;20.03;18.27;;;29.60;68.10;;;;;;4972016;28;20463;-74
2022/08/26 15:29:09;;;;;;;18.07;16.93;;;29.60;68.80;;;;;;4971807;28;20454;-73
2022/08/26 15:31:35;;;;;;;20.00;18.30;;;29.50;69.10;;;;;;4972155;28;20506;-74
2022/08/26 15:34:05;;;;;;;20.10;18.10;;;29.50;69.60;;;;;;4971537;28;20455;-74
2022/08/26 15:36:33;;;;;;;19.57;18.00;;;29.30;70.20;;;;;;4971525;28;20514;-74
2022/08/26 15:39:01;;;;;;;19.67;18.37;;;29.20;74.10;;;;;;4971607;28;21000;-73
2022/08/26 15:41:28;;;;;;;21.03;18.87;;;29.00;76.60;;;;;;4971873;28;20877;-73
2022/08/26 15:43:57;;;;;;;23.17;21.23;;;28.80;78.00;;;;;;4972171;28;20550;-71
2022/08/26 15:46:24;;;;;;;18.73;17.20;;;28.60;80.90;;;;;;4971808;28;20447;-72
2022/08/26 15:48:51;;;;;;;19.27;17.60;;;28.50;83.40;;;;;;4971187;28;20458;-72
2022/08/26 15:51:24;;;;;;;19.67;17.93;;;28.40;84.60;;;;;;4971069;28;20483;-72
2022/08/26 15:53:51;;;;;;;19.83;18.33;;;28.30;85.60;;;;;;4971707;28;20526;-72
2022/08/26 15:56:18;;;;;;;20.40;19.10;;;28.30;86.20;;;;;;4971615;28;20820;-73
2022/08/26 15:58:45;;;;;;;17.97;16.47;;;28.20;87.70;;;;;;4971678;28;20510;-76
2022/08/26 16:01:13;;;;;;;19.47;18.23;;;28.20;88.60;;;;;;4971019;28;20938;-76
2022/08/26 16:03:40;;;;;;;16.23;15.33;;;28.00;87.50;;;;;;4970159;28;20495;-77
2022/08/26 16:06:07;;;;;;;20.47;18.57;;;27.80;89.20;;;;;;4971159;28;20451;-77
2022/08/26 16:08:34;;;;;;;17.07;15.27;;;27.60;90.30;;;;;;4970795;28;20455;-77
2022/08/26 16:11:03;;;;;;;15.97;15.10;;;27.00;91.00;;;;;;4970728;28;20506;-78
2022/08/26 16:13:30;;;;;;;15.80;14.93;;;26.80;91.90;;;;;;4970870;28;20455;-78
2022/08/26 16:15:59;;;;;;;14.37;13.60;;;26.60;92.50;;;;;;4971083;28;20514;-77
2022/08/26 16:18:27;;;;;;;15.00;14.10;;;26.40;92.60;;;;;;4970918;28;20459;-76
2022/08/26 16:20:54;;;;;;;13.73;13.03;;;26.10;93.40;;;;;;4970783;28;20484;-76
2022/08/26 16:23:21;;;;;;;14.87;13.77;;;;;;;;;;4970601;28;20451;-76
2022/08/26 16:25:48;;;;;;;13.97;13.27;;;25.70;96.50;;;;;;4970770;28;20459;-76
2022/08/26 16:28:16;;;;;;;14.20;13.50;;;25.30;98.70;;;;;;4970738;28;20455;-78
2022/08/26 16:30:44;;;;;;;15.73;14.57;;;25.20;99.70;;;;;;4970716;28;21017;-76
2022/08/26 16:33:11;;;;;;;14.37;13.47;;;25.00;99.90;;;;;;4971143;28;20490;-76
2022/08/26 16:35:40;;;;;;;15.00;14.00;;;24.70;99.90;;;;;;4971190;28;20503;-76